Time;durP1;ratioP1;P1;durP2;ratioP2;P2;SDS_P1;SDS_P2;PMS_P1;PMS_P2;Temp;Humidity;BMP_temperature;BMP_pressure;BME280_temperature;BME280_humidity;BME280_pressure;Samples;Min_cycle;Max_cycle;Signal;HPM_P1;HPM_P2
2022/04/12 00:00:40;;;;;;;19.58;10.45;;;;;;;;;;6145984;23;20009;-48
2022/04/12 00:03:06;;;;;;;15.90;8.57;;;;;;;;;;6143017;23;20013;-48
2022/04/12 00:05:32;;;;;;;20.20;10.77;;;;;;;;;;6144254;23;20020;-49
2022/04/12 00:07:58;;;;;;;18.33;10.57;;;;;;;;;;6167345;23;20013;-46
2022/04/12 00:10:23;;;;;;;18.40;10.52;;;;;;;;;;6144547;23;20037;-46
2022/04/12 00:12:49;;;;;;;20.50;10.73;;;;;;;;;;6143581;23;20246;-48
2022/04/12 00:15:14;;;;;;;17.75;9.43;;;;;;;;;;6143015;23;20666;-47
2022/04/12 00:20:26;;;;;;;21.20;9.95;;;;;;;;;;6145188;23;20795;-49
2022/04/12 00:22:51;;;;;;;17.80;9.30;;;;;;;;;;6144040;23;20266;-47
2022/04/12 00:25:18;;;;;;;18.75;10.30;;;;;;;;;;6145162;23;20448;-45
2022/04/12 00:27:44;;;;;;;17.00;10.80;;;;;;;;;;6144458;23;20014;-47
2022/04/12 00:30:11;;;;;;;17.75;10.35;;;;;;;;;;6144556;23;20025;-47
2022/04/12 00:32:37;;;;;;;20.23;10.35;;;;;;;;;;6143672;23;20009;-46
2022/04/12 00:35:03;;;;;;;20.48;10.02;;;;;;;;;;6145704;23;20047;-46
2022/04/12 00:37:28;;;;;;;21.77;11.20;;;;;;;;;;6143471;23;20412;-46
2022/04/12 00:39:53;;;;;;;18.35;11.23;;;;;;;;;;6145211;23;20008;-45
2022/04/12 00:42:19;;;;;;;19.45;11.30;;;;;;;;;;6141419;23;20009;-45
2022/04/12 00:44:44;;;;;;;23.98;10.88;;;;;;;;;;6143740;23;20020;-48
2022/04/12 00:47:09;;;;;;;19.85;10.32;;;;;;;;;;6142719;23;20009;-48
2022/04/12 00:49:35;;;;;;;23.00;12.65;;;;;;;;;;6145687;23;20013;-47
2022/04/12 00:52:00;;;;;;;20.63;12.60;;;;;;;;;;6143149;23;20026;-47
2022/04/12 00:54:28;;;;;;;23.60;13.15;;;;;;;;;;6167844;23;20060;-46
2022/04/12 00:56:53;;;;;;;24.00;12.25;;;;;;;;;;6142859;23;20411;-45
2022/04/12 00:59:19;;;;;;;24.48;12.77;;;;;;;;;;6146253;23;20039;-47
2022/04/12 01:01:44;;;;;;;24.70;11.73;;;;;;;;;;6145695;23;20718;-47
2022/04/12 01:04:09;;;;;;;26.80;12.27;;;;;;;;;;6145577;23;20333;-48
2022/04/12 01:06:35;;;;;;;23.65;12.98;;;;;;;;;;6144666;23;20021;-46
2022/04/12 01:09:04;;;;;;;24.00;12.30;;;;;;;;;;6147947;23;20574;-46
2022/04/12 01:11:29;;;;;;;23.05;13.88;;;;;;;;;;6144879;23;20049;-50
2022/04/12 01:13:54;;;;;;;22.63;12.07;;;;;;;;;;6147565;23;20010;-48
2022/04/12 01:16:20;;;;;;;20.83;11.32;;;;;;;;;;6144916;23;20034;-47
2022/04/12 01:18:45;;;;;;;22.33;10.70;;;;;;;;;;6147117;23;20061;-45
2022/04/12 01:21:11;;;;;;;24.67;10.88;;;;;;;;;;6142784;23;20037;-50
2022/04/12 01:23:42;;;;;;;23.95;12.65;;;;;;;;;;6147459;23;20013;-45
2022/04/12 01:26:07;;;;;;;20.35;12.73;;;;;;;;;;6144979;23;20017;-46
2022/04/12 01:28:33;;;;;;;20.40;11.65;;;;;;;;;;6146036;23;20009;-47
2022/04/12 01:30:58;;;;;;;21.85;10.80;;;;;;;;;;6143915;23;20054;-46
2022/04/12 01:33:23;;;;;;;24.20;11.48;;;;;;;;;;6147377;23;20025;-45
2022/04/12 01:35:48;;;;;;;20.95;10.57;;;;;;;;;;6145194;23;20009;-47
2022/04/12 01:38:14;;;;;;;31.50;13.18;;;;;;;;;;6146466;23;20014;-47
2022/04/12 01:40:39;;;;;;;26.88;11.23;;;;;;;;;;6145050;23;20020;-46
2022/04/12 01:43:04;;;;;;;21.88;12.05;;;;;;;;;;6147552;23;20059;-45
2022/04/12 01:45:29;;;;;;;18.55;11.07;;;;;;;;;;6143494;23;20093;-48
2022/04/12 01:47:58;;;;;;;24.30;11.65;;;;;;;;;;6147362;23;20009;-45
2022/04/12 01:50:23;;;;;;;20.83;12.50;;;;;;;;;;6143990;23;20535;-46
2022/04/12 01:52:48;;;;;;;22.55;12.15;;;;;;;;;;6146658;23;20013;-46
2022/04/12 01:55:14;;;;;;;27.13;11.95;;;;;;;;;;6144690;23;20069;-45
2022/04/12 01:57:39;;;;;;;24.05;13.30;;;;;;;;;;6147065;23;20009;-47
2022/04/12 02:00:06;;;;;;;22.50;11.23;;;;;;;;;;6168172;23;20033;-46
2022/04/12 02:02:31;;;;;;;23.48;12.00;;;;;;;;;;6145767;23;20014;-47
2022/04/12 02:04:56;;;;;;;22.98;14.07;;;;;;;;;;6144457;23;20060;-45
2022/04/12 02:07:22;;;;;;;28.88;13.00;;;;;;;;;;6145985;23;20029;-46
2022/04/12 02:09:47;;;;;;;19.98;11.02;;;;;;;;;;6144368;23;20069;-45
2022/04/12 02:12:12;;;;;;;23.45;13.00;;;;;;;;;;6145783;23;20802;-46
2022/04/12 02:14:38;;;;;;;22.67;12.10;;;;;;;;;;6144640;23;20082;-45
2022/04/12 02:17:03;;;;;;;25.38;12.70;;;;;;;;;;6169728;23;20688;-45
2022/04/12 02:19:28;;;;;;;23.17;11.43;;;;;;;;;;6141777;23;20049;-45
2022/04/12 02:21:53;;;;;;;28.88;12.93;;;;;;;;;;6146771;23;20025;-45
2022/04/12 02:24:19;;;;;;;23.40;13.55;;;;;;;;;;6144601;23;20022;-47
2022/04/12 02:26:44;;;;;;;25.80;12.77;;;;;;;;;;6146758;23;20018;-45
2022/04/12 02:29:12;;;;;;;20.85;11.77;;;;;;;;;;6144479;23;20069;-47
2022/04/12 02:31:37;;;;;;;22.33;12.18;;;;;;;;;;6144556;23;20056;-47
2022/04/12 02:34:02;;;;;;;26.15;13.00;;;;;;;;;;6145502;23;20464;-45
2022/04/12 02:36:28;;;;;;;24.13;12.93;;;;;;;;;;6146907;23;20017;-46
2022/04/12 02:38:53;;;;;;;25.38;13.43;;;;;;;;;;6144603;23;20037;-45
2022/04/12 02:41:18;;;;;;;22.73;12.48;;;;;;;;;;6145538;23;20048;-44
2022/04/12 02:43:43;;;;;;;23.80;12.43;;;;;;;;;;6145631;23;20522;-45
2022/04/12 02:46:09;;;;;;;19.83;11.90;;;;;;;;;;6145663;23;20036;-47
2022/04/12 03:03:27;;;;;;;18.52;9.60;;;;;;;;;;6143081;23;20413;-48
2022/04/12 03:05:53;;;;;;;20.10;11.80;;;;;;;;;;6144229;23;20842;-46
2022/04/12 03:08:18;;;;;;;18.58;11.30;;;;;;;;;;6143979;23;20745;-48
2022/04/12 03:10:44;;;;;;;22.05;11.23;;;;;;;;;;6143323;23;20024;-45
2022/04/12 03:13:09;;;;;;;19.15;11.85;;;;;;;;;;6144259;23;20010;-45
2022/04/12 03:15:34;;;;;;;20.38;12.00;;;;;;;;;;6145962;23;20117;-46
2022/04/12 03:17:59;;;;;;;17.77;10.38;;;;;;;;;;6142158;23;20017;-45
2022/04/12 03:20:25;;;;;;;19.05;10.27;;;;;;;;;;6137824;23;20218;-44
2022/04/12 03:22:50;;;;;;;20.92;10.75;;;;;;;;;;6145045;23;20010;-46
2022/04/12 03:25:15;;;;;;;22.55;10.63;;;;;;;;;;6143928;23;20021;-49
2022/04/12 03:27:41;;;;;;;17.98;10.25;;;;;;;;;;6118430;23;20006;-46
2022/04/12 03:30:06;;;;;;;19.70;10.55;;;;;;;;;;6145398;23;20349;-46
2022/04/12 03:32:31;;;;;;;18.80;10.00;;;;;;;;;;6143979;23;20352;-46
2022/04/12 03:34:57;;;;;;;15.20;8.85;;;;;;;;;;6118644;23;20033;-46
2022/04/12 03:37:22;;;;;;;25.75;10.25;;;;;;;;;;6141802;23;20048;-47
2022/04/12 03:39:48;;;;;;;17.42;9.90;;;;;;;;;;6146374;23;20065;-45
2022/04/12 03:42:14;;;;;;;24.27;10.10;;;;;;;;;;6143292;23;20036;-46
2022/04/12 03:44:39;;;;;;;17.10;9.27;;;;;;;;;;6146201;23;20013;-47
2022/04/12 03:47:05;;;;;;;20.50;9.45;;;;;;;;;;6143724;23;20021;-45
2022/04/12 03:49:30;;;;;;;16.02;9.63;;;;;;;;;;6145660;23;20018;-47
2022/04/12 03:51:55;;;;;;;17.10;8.85;;;;;;;;;;6143398;23;20053;-48
2022/04/12 03:54:21;;;;;;;16.40;9.98;;;;;;;;;;6144628;23;20017;-48
2022/04/12 03:56:46;;;;;;;17.70;9.55;;;;;;;;;;6145433;23;20017;-47
2022/04/12 03:59:11;;;;;;;18.70;9.70;;;;;;;;;;6143749;23;20017;-46
2022/04/12 04:01:37;;;;;;;21.35;10.60;;;;;;;;;;6152648;23;20097;-46
2022/04/12 04:04:02;;;;;;;21.08;10.10;;;;;;;;;;6174794;23;20017;-46
2022/04/12 04:06:28;;;;;;;21.20;9.40;;;;;;;;;;6171505;23;20020;-46
2022/04/12 04:08:53;;;;;;;19.65;10.27;;;;;;;;;;6174577;23;20597;-46
2022/04/12 04:11:18;;;;;;;23.95;9.70;;;;;;;;;;6170888;23;20664;-45
2022/04/12 04:13:44;;;;;;;21.38;9.73;;;;;;;;;;6174298;23;20052;-46
2022/04/12 04:16:09;;;;;;;25.98;10.25;;;;;;;;;;6172398;23;20017;-47
2022/04/12 04:18:35;;;;;;;20.98;10.02;;;;;;;;;;6173997;23;20009;-45
2022/04/12 04:21:00;;;;;;;13.82;9.02;;;;;;;;;;6172595;23;20013;-47
2022/04/12 04:23:25;;;;;;;18.35;10.48;;;;;;;;;;6173689;23;20085;-45
2022/04/12 04:25:51;;;;;;;18.73;9.65;;;;;;;;;;6146860;23;20024;-46
2022/04/12 04:28:21;;;;;;;15.57;8.85;;;;;;;;;;6173623;23;20077;-45
2022/04/12 04:30:47;;;;;;;20.63;10.00;;;;;;;;;;6173503;23;20013;-44
2022/04/12 04:33:14;;;;;;;21.17;10.07;;;;;;;;;;6172999;23;20052;-47
2022/04/12 04:35:39;;;;;;;19.13;10.90;;;;;;;;;;6174568;23;20012;-47
2022/04/12 04:38:04;;;;;;;21.52;12.18;;;;;;;;;;6174405;23;20024;-45
2022/04/12 04:40:29;;;;;;;23.95;11.20;;;;;;;;;;6174355;23;20053;-49
2022/04/12 04:42:55;;;;;;;28.55;11.30;;;;;;;;;;6174194;23;20013;-45
2022/04/12 04:45:20;;;;;;;19.77;10.63;;;;;;;;;;6173291;23;20048;-47
2022/04/12 04:47:52;;;;;;;26.35;11.57;;;;;;;;;;6174187;23;20020;-49
2022/04/12 04:50:18;;;;;;;16.83;10.70;;;;;;;;;;6172949;23;20044;-46
2022/04/12 04:52:44;;;;;;;23.15;11.40;;;;;;;;;;6173884;23;20096;-49
2022/04/12 04:55:09;;;;;;;23.63;11.70;;;;;;;;;;6174295;23;20009;-45
2022/04/12 04:57:39;;;;;;;20.40;10.55;;;;;;;;;;6173170;23;20005;-47
2022/04/12 05:00:05;;;;;;;21.10;11.50;;;;;;;;;;6174186;23;20013;-46
2022/04/12 05:02:31;;;;;;;21.02;11.63;;;;;;;;;;6146586;23;20028;-46
2022/04/12 05:04:57;;;;;;;19.45;12.13;;;;;;;;;;6173311;23;20015;-46
2022/04/12 05:07:25;;;;;;;17.88;11.07;;;;;;;;;;6172753;23;20017;-47
2022/04/12 05:09:51;;;;;;;19.88;12.20;;;;;;;;;;6173812;23;20009;-46
2022/04/12 05:12:16;;;;;;;22.73;10.77;;;;;;;;;;6172965;23;20013;-48
2022/04/12 05:14:42;;;;;;;18.45;11.25;;;;;;;;;;6172777;23;20601;-46
2022/04/12 05:17:07;;;;;;;19.42;10.77;;;;;;;;;;6174316;23;20605;-47
2022/04/12 05:19:32;;;;;;;20.05;10.40;;;;;;;;;;6171702;23;20008;-48
2022/04/12 05:21:57;;;;;;;12.60;8.45;;;;;;;;;;6173736;23;20072;-45
2022/04/12 05:24:23;;;;;;;21.23;9.00;;;;;;;;;;6172478;23;20083;-46
2022/04/12 05:26:48;;;;;;;25.83;9.38;;;;;;;;;;6173913;23;20044;-46
2022/04/12 05:29:13;;;;;;;16.67;9.20;;;;;;;;;;6174748;23;20020;-47
2022/04/12 05:31:38;;;;;;;19.90;8.40;;;;;;;;;;6172969;23;20028;-47
2022/04/12 05:34:04;;;;;;;15.75;9.40;;;;;;;;;;6174104;23;20080;-46
2022/04/12 05:36:29;;;;;;;13.50;8.68;;;;;;;;;;6173032;23;20703;-46
2022/04/12 05:38:54;;;;;;;17.27;9.45;;;;;;;;;;6174162;23;20718;-45
2022/04/12 05:41:19;;;;;;;19.75;10.10;;;;;;;;;;6172887;23;20013;-47
2022/04/12 05:43:45;;;;;;;27.08;10.52;;;;;;;;;;6175440;23;20009;-45
2022/04/12 05:46:10;;;;;;;17.02;9.77;;;;;;;;;;6173881;23;20017;-47
2022/04/12 05:48:35;;;;;;;24.15;10.70;;;;;;;;;;6175922;23;20009;-47
2022/04/12 05:51:01;;;;;;;16.00;10.13;;;;;;;;;;6175163;23;20064;-45
2022/04/12 05:53:27;;;;;;;16.17;10.15;;;;;;;;;;6174482;23;20020;-44
2022/04/12 05:55:53;;;;;;;23.60;10.95;;;;;;;;;;6175307;23;20066;-45
2022/04/12 05:58:18;;;;;;;17.02;9.50;;;;;;;;;;6175250;23;20455;-46
2022/04/12 06:00:43;;;;;;;17.85;8.10;;;;;;;;;;6176271;23;20012;-47
2022/04/12 06:03:09;;;;;;;14.77;8.07;;;;;;;;;;6174843;23;20043;-47
2022/04/12 06:05:34;;;;;;;15.35;7.90;;;;;;;;;;6175344;23;20024;-45
2022/04/12 06:08:00;;;;;;;16.05;7.78;;;;;;;;;;6174096;23;20013;-46
2022/04/12 06:10:26;;;;;;;14.93;8.00;;;;;;;;;;6174586;23;20005;-46
2022/04/12 06:12:51;;;;;;;20.17;9.70;;;;;;;;;;6173955;23;20063;-46
2022/04/12 06:15:17;;;;;;;19.58;8.57;;;;;;;;;;6176002;23;20399;-47
2022/04/12 06:17:43;;;;;;;12.55;8.50;;;;;;;;;;6174277;23;20017;-48
2022/04/12 06:20:15;;;;;;;24.80;8.63;;;;;;;;;;6175803;23;20009;-45
2022/04/12 06:22:41;;;;;;;19.60;9.00;;;;;;;;;;6174854;23;20833;-46
2022/04/12 06:25:07;;;;;;;15.32;8.68;;;;;;;;;;6175663;23;20035;-45
2022/04/12 06:27:33;;;;;;;16.70;8.45;;;;;;;;;;6174715;23;20017;-45
2022/04/12 06:30:02;;;;;;;18.45;8.77;;;;;;;;;;6175714;23;20064;-47
2022/04/12 06:32:27;;;;;;;19.25;9.68;;;;;;;;;;6173683;23;20127;-48
2022/04/12 06:34:52;;;;;;;24.15;9.73;;;;;;;;;;6172539;23;20013;-47
2022/04/12 06:37:18;;;;;;;17.85;10.13;;;;;;;;;;6172769;23;20024;-47
2022/04/12 06:39:43;;;;;;;22.05;10.30;;;;;;;;;;6173632;23;20017;-46
2022/04/12 06:42:08;;;;;;;18.05;10.25;;;;;;;;;;6173729;23;20009;-45
2022/04/12 06:44:34;;;;;;;25.15;11.60;;;;;;;;;;6173781;23;20719;-47
2022/04/12 06:47:00;;;;;;;20.27;10.27;;;;;;;;;;6173227;23;20021;-46
2022/04/12 06:49:25;;;;;;;22.80;9.98;;;;;;;;;;6175265;23;20010;-45
2022/04/12 06:51:50;;;;;;;17.05;10.85;;;;;;;;;;6171200;23;20012;-48
2022/04/12 06:54:15;;;;;;;21.75;11.30;;;;;;;;;;6172565;23;20077;-45
2022/04/12 06:56:41;;;;;;;22.83;9.98;;;;;;;;;;6174018;23;20037;-47
2022/04/12 06:59:06;;;;;;;17.23;10.02;;;;;;;;;;6150000;23;20013;-47
2022/04/12 07:01:31;;;;;;;24.33;11.07;;;;;;;;;;6172072;23;20024;-49
2022/04/12 07:03:57;;;;;;;19.65;11.23;;;;;;;;;;6173981;23;20067;-48
2022/04/12 07:06:22;;;;;;;19.42;11.48;;;;;;;;;;6171992;23;20434;-46
2022/04/12 07:08:47;;;;;;;23.27;12.38;;;;;;;;;;6173540;23;20013;-48
2022/04/12 07:11:13;;;;;;;17.15;10.93;;;;;;;;;;6173961;23;20009;-47
2022/04/12 07:13:38;;;;;;;25.30;11.13;;;;;;;;;;6175845;23;20005;-46
2022/04/12 07:16:03;;;;;;;22.80;12.20;;;;;;;;;;6169845;23;20006;-47
2022/04/12 07:18:29;;;;;;;26.73;11.82;;;;;;;;;;6175061;23;20017;-45
2022/04/12 07:20:55;;;;;;;19.55;11.20;;;;;;;;;;6172584;23;20355;-45
2022/04/12 07:23:20;;;;;;;20.30;11.25;;;;;;;;;;6174536;23;20040;-47
2022/04/12 07:25:45;;;;;;;22.38;11.73;;;;;;;;;;6173393;23;20021;-47
2022/04/12 07:28:10;;;;;;;22.45;11.85;;;;;;;;;;6171376;23;20005;-47
2022/04/12 07:30:36;;;;;;;22.25;11.73;;;;;;;;;;6173598;23;20020;-48
2022/04/12 07:33:01;;;;;;;22.05;12.73;;;;;;;;;;6172082;23;20132;-45
2022/04/12 07:35:27;;;;;;;25.42;12.75;;;;;;;;;;6174090;23;20072;-45
2022/04/12 07:37:52;;;;;;;26.00;12.65;;;;;;;;;;6175401;23;20716;-47
2022/04/12 07:40:18;;;;;;;24.08;13.13;;;;;;;;;;6173535;23;20028;-45
2022/04/12 07:42:43;;;;;;;28.13;14.23;;;;;;;;;;6176040;23;20023;-46
2022/04/12 07:45:08;;;;;;;20.88;13.50;;;;;;;;;;6167126;23;20017;-45
2022/04/12 07:47:34;;;;;;;23.92;13.13;;;;;;;;;;6170666;23;20748;-45
2022/04/12 07:50:00;;;;;;;21.38;12.27;;;;;;;;;;6169132;23;20020;-46
2022/04/12 07:52:25;;;;;;;29.45;13.85;;;;;;;;;;6171091;23;20692;-45
2022/04/12 07:54:51;;;;;;;33.33;15.85;;;;;;;;;;6171381;23;20013;-47
2022/04/12 07:57:16;;;;;;;31.33;13.27;;;;;;;;;;6169578;23;20045;-45
2022/04/12 07:59:41;;;;;;;25.13;13.05;;;;;;;;;;6169238;23;20619;-46
2022/04/12 08:02:06;;;;;;;25.73;14.23;;;;;;;;;;6170114;23;20029;-45
2022/04/12 08:04:32;;;;;;;26.23;12.70;;;;;;;;;;6169137;23;20013;-45
2022/04/12 08:06:57;;;;;;;27.70;14.50;;;;;;;;;;6166437;23;20029;-46
2022/04/12 08:09:23;;;;;;;31.85;13.10;;;;;;;;;;6158835;23;20032;-51
2022/04/12 08:11:48;;;;;;;32.92;15.30;;;;;;;;;;6115643;23;20072;-50
2022/04/12 08:14:13;;;;;;;27.80;13.82;;;;;;;;;;6107616;23;20545;-54
2022/04/12 08:16:39;;;;;;;30.13;15.23;;;;;;;;;;6102133;23;20017;-52
2022/04/12 08:19:04;;;;;;;33.15;15.10;;;;;;;;;;6107419;23;20554;-54
2022/04/12 08:21:32;;;;;;;31.40;15.90;;;;;;;;;;6113472;23;20645;-53
2022/04/12 08:23:58;;;;;;;29.00;15.77;;;;;;;;;;6110928;23;20021;-50
2022/04/12 08:26:24;;;;;;;33.65;15.98;;;;;;;;;;6087583;23;20026;-52
2022/04/12 08:28:50;;;;;;;33.67;17.73;;;;;;;;;;6106734;23;20009;-53
2022/04/12 08:31:15;;;;;;;29.25;16.48;;;;;;;;;;6107556;23;20041;-52
2022/04/12 08:33:40;;;;;;;38.83;16.48;;;;;;;;;;6110516;23;20072;-49
2022/04/12 08:36:05;;;;;;;38.10;17.30;;;;;;;;;;6115606;23;20014;-51
2022/04/12 08:38:31;;;;;;;38.08;17.60;;;;;;;;;;6113919;23;20063;-48
2022/04/12 08:40:56;;;;;;;31.00;17.13;;;;;;;;;;6090543;23;20018;-53
2022/04/12 08:43:22;;;;;;;34.30;18.00;;;;;;;;;;6112699;23;20097;-52
2022/04/12 08:45:48;;;;;;;29.13;16.95;;;;;;;;;;6116168;23;20761;-53
2022/04/12 08:48:14;;;;;;;34.88;17.45;;;;;;;;;;6113757;23;20010;-53
2022/04/12 08:50:40;;;;;;;33.35;15.70;;;;;;;;;;6115231;23;20010;-50
2022/04/12 08:53:06;;;;;;;40.55;19.63;;;;;;;;;;6113800;23;20006;-51
2022/04/12 08:55:32;;;;;;;33.55;16.42;;;;;;;;;;6113802;23;20029;-54
2022/04/12 08:57:57;;;;;;;31.20;17.13;;;;;;;;;;6115532;23;20086;-52
2022/04/12 09:00:22;;;;;;;30.80;16.70;;;;;;;;;;6114657;23;20479;-55
2022/04/12 09:02:58;;;;;;;34.13;16.35;;;;;;;;;;6114306;23;20061;-53
2022/04/12 09:05:24;;;;;;;41.75;17.85;;;;;;;;;;6115125;23;20022;-53
2022/04/12 09:07:49;;;;;;;31.90;16.92;;;;;;;;;;6114689;23;20029;-52
2022/04/12 09:10:16;;;;;;;31.58;18.48;;;;;;;;;;6115117;23;20033;-55
2022/04/12 09:12:41;;;;;;;33.47;18.50;;;;;;;;;;6136428;23;20044;-50
2022/04/12 09:15:11;;;;;;;33.95;17.52;;;;;;;;;;6115212;23;20030;-52
2022/04/12 09:17:36;;;;;;;;;;;;;;;;;;6114433;23;20278;-54
2022/04/12 09:20:10;;;;;;;31.52;16.35;;;;;;;;;;6113954;23;20388;-52
2022/04/12 09:22:37;;;;;;;32.90;16.67;;;;;;;;;;6115470;23;20005;-53
2022/04/12 09:25:04;;;;;;;31.83;16.65;;;;;;;;;;6114083;23;20010;-55
2022/04/12 09:27:30;;;;;;;25.88;15.93;;;;;;;;;;6115643;23;20026;-53
2022/04/12 09:29:57;;;;;;;36.88;18.45;;;;;;;;;;6141137;23;20737;-54
2022/04/12 09:32:23;;;;;;;32.83;17.45;;;;;;;;;;6115182;23;20037;-53
2022/04/12 09:34:48;;;;;;;34.22;16.88;;;;;;;;;;6117439;23;20020;-52
2022/04/12 09:37:26;;;;;;;31.42;16.52;;;;;;;;;;6114845;23;20039;-53
2022/04/12 09:40:00;;;;;;;40.25;19.85;;;;;;;;;;6115699;23;20014;-51
2022/04/12 09:42:41;;;;;;;31.85;16.63;;;;;;;;;;6116864;23;20065;-52
2022/04/12 09:45:08;;;;;;;36.00;17.58;;;;;;;;;;6115869;23;20025;-53
2022/04/12 09:47:33;;;;;;;34.55;17.05;;;;;;;;;;6116858;23;20014;-54
2022/04/12 09:50:00;;;;;;;34.83;16.77;;;;;;;;;;6116086;23;20177;-49
2022/04/12 09:52:25;;;;;;;37.35;18.85;;;;;;;;;;6116582;23;20022;-52
2022/04/12 09:54:51;;;;;;;32.45;16.95;;;;;;;;;;6114598;23;20006;-53
2022/04/12 09:57:17;;;;;;;27.50;14.75;;;;;;;;;;6117680;23;20022;-52
2022/04/12 09:59:43;;;;;;;29.17;14.85;;;;;;;;;;6116203;23;20040;-52
2022/04/12 10:02:08;;;;;;;35.47;16.70;;;;;;;;;;6117876;23;20018;-52
2022/04/12 10:04:36;;;;;;;34.38;16.65;;;;;;;;;;6134676;23;20033;-53
2022/04/12 10:07:02;;;;;;;37.08;16.83;;;;;;;;;;6140812;23;20022;-52
2022/04/12 10:09:28;;;;;;;23.85;14.68;;;;;;;;;;6142448;23;20565;-53
2022/04/12 10:11:53;;;;;;;27.67;14.55;;;;;;;;;;6146788;23;20010;-52
2022/04/12 10:14:18;;;;;;;24.17;13.05;;;;;;;;;;6143079;23;20461;-53
2022/04/12 10:16:44;;;;;;;31.85;14.38;;;;;;;;;;6146751;23;20017;-51
2022/04/12 10:19:10;;;;;;;24.50;13.55;;;;;;;;;;6144521;23;20009;-53
2022/04/12 10:21:35;;;;;;;21.52;13.20;;;;;;;;;;6147402;23;20013;-51
2022/04/12 10:24:01;;;;;;;20.98;11.90;;;;;;;;;;6144177;23;20401;-52
2022/04/12 10:26:27;;;;;;;19.83;11.20;;;;;;;;;;6136887;23;20085;-55
2022/04/12 10:28:54;;;;;;;16.20;8.77;;;;;;;;;;6148208;23;20016;-50
2022/04/12 10:31:21;;;;;;;20.08;9.80;;;;;;;;;;6175286;23;20021;-52
2022/04/12 10:34:01;;;;;;;16.73;10.02;;;;;;;;;;6173420;23;20068;-53
2022/04/12 10:36:45;;;;;;;14.77;8.15;;;;;;;;;;6174809;23;20017;-54
2022/04/12 10:39:12;;;;;;;25.48;10.57;;;;;;;;;;6175862;23;20047;-54
2022/04/12 10:41:42;;;;;;;18.00;10.23;;;;;;;;;;6173366;23;20040;-53
2022/04/12 10:44:17;;;;;;;20.27;11.45;;;;;;;;;;6176414;23;20047;-53
2022/04/12 10:46:51;;;;;;;20.00;10.00;;;;;;;;;;6173549;23;20070;-53
2022/04/12 10:49:20;;;;;;;21.95;11.70;;;;;;;;;;6175607;23;20043;-53
2022/04/12 10:51:46;;;;;;;19.20;11.20;;;;;;;;;;6174361;23;20013;-55
2022/04/12 10:54:31;;;;;;;22.95;12.00;;;;;;;;;;6174683;23;20037;-55
2022/04/12 10:57:15;;;;;;;24.90;11.82;;;;;;;;;;6176723;23;20036;-52
2022/04/12 10:59:45;;;;;;;36.72;13.60;;;;;;;;;;6173756;23;20016;-54
2022/04/12 11:02:11;;;;;;;28.52;11.65;;;;;;;;;;6176094;23;20013;-51
2022/04/12 11:04:36;;;;;;;22.05;9.95;;;;;;;;;;6174264;23;20005;-51
2022/04/12 11:07:02;;;;;;;22.20;11.23;;;;;;;;;;6175459;23;20017;-52
2022/04/12 11:09:27;;;;;;;20.23;10.10;;;;;;;;;;6173137;23;20057;-49
2022/04/12 11:11:52;;;;;;;26.10;11.25;;;;;;;;;;6176878;23;20013;-54
2022/04/12 11:14:21;;;;;;;22.98;9.20;;;;;;;;;;6172602;23;20115;-52
2022/04/12 11:16:47;;;;;;;24.10;10.30;;;;;;;;;;6176003;23;20017;-51
2022/04/12 11:19:19;;;;;;;27.23;10.60;;;;;;;;;;6173343;23;20020;-50
2022/04/12 11:21:51;;;;;;;18.58;11.32;;;;;;;;;;6175410;23;20013;-54
2022/04/12 11:24:20;;;;;;;23.48;11.32;;;;;;;;;;6172466;23;20108;-50
2022/04/12 11:26:50;;;;;;;25.85;10.40;;;;;;;;;;6175655;23;20021;-51
2022/04/12 11:29:19;;;;;;;22.65;10.15;;;;;;;;;;6169289;23;20587;-52
2022/04/12 11:31:46;;;;;;;27.17;11.13;;;;;;;;;;6174945;23;20443;-52
2022/04/12 11:34:11;;;;;;;12.90;5.90;;;;;;;;;;6171277;23;20017;-52
2022/04/12 11:36:38;;;;;;;14.25;6.40;;;;;;;;;;6175246;23;20073;-52
2022/04/12 11:39:03;;;;;;;23.17;10.43;;;;;;;;;;6172956;23;20013;-51
2022/04/12 11:41:29;;;;;;;28.15;12.20;;;;;;;;;;6168249;23;20036;-53
2022/04/12 11:44:13;;;;;;;26.90;10.45;;;;;;;;;;6170458;23;20024;-54
2022/04/12 11:46:39;;;;;;;21.92;11.18;;;;;;;;;;6170253;23;20226;-53
2022/04/12 11:49:04;;;;;;;29.27;12.82;;;;;;;;;;6171830;23;20266;-54
2022/04/12 11:51:29;;;;;;;27.45;11.23;;;;;;;;;;6168379;23;20289;-49
2022/04/12 11:53:54;;;;;;;25.75;10.88;;;;;;;;;;6172309;23;20470;-52
2022/04/12 11:56:20;;;;;;;22.33;10.52;;;;;;;;;;6168515;23;20056;-54
2022/04/12 11:58:45;;;;;;;18.65;9.63;;;;;;;;;;6171486;23;20148;-53
2022/04/12 12:01:13;;;;;;;28.15;11.93;;;;;;;;;;6169324;23;20338;-51
2022/04/12 12:03:40;;;;;;;29.30;11.10;;;;;;;;;;6166645;23;20017;-52
2022/04/12 12:06:07;;;;;;;24.92;9.20;;;;;;;;;;6144389;23;20048;-50
2022/04/12 12:08:32;;;;;;;24.50;10.38;;;;;;;;;;6168584;23;20028;-53
2022/04/12 12:10:58;;;;;;;22.80;11.23;;;;;;;;;;6170979;23;20013;-53
2022/04/12 12:13:24;;;;;;;20.75;9.20;;;;;;;;;;6169970;23;20095;-53
2022/04/12 12:15:49;;;;;;;18.88;10.48;;;;;;;;;;6169901;23;20025;-54
2022/04/12 12:18:18;;;;;;;23.80;9.88;;;;;;;;;;6139576;23;20086;-52
2022/04/12 12:20:45;;;;;;;16.08;9.05;;;;;;;;;;6171288;23;20001;-52
2022/04/12 12:23:11;;;;;;;24.38;8.95;;;;;;;;;;6125887;23;20491;-52
2022/04/12 12:25:50;;;;;;;24.20;10.10;;;;;;;;;;6154566;23;20036;-51
2022/04/12 12:28:18;;;;;;;23.88;10.13;;;;;;;;;;6168912;23;20061;-52
2022/04/12 12:30:44;;;;;;;29.10;9.82;;;;;;;;;;6173488;23;20037;-53
2022/04/12 12:33:09;;;;;;;19.17;8.15;;;;;;;;;;6171098;23;20064;-51
2022/04/12 12:35:39;;;;;;;28.98;9.82;;;;;;;;;;6174011;23;20013;-50
2022/04/12 12:38:11;;;;;;;17.27;9.00;;;;;;;;;;6171934;23;20013;-52
2022/04/12 12:40:37;;;;;;;27.27;10.00;;;;;;;;;;6170502;23;20020;-51
2022/04/12 12:43:06;;;;;;;24.15;9.43;;;;;;;;;;6174137;23;20487;-53
2022/04/12 12:45:33;;;;;;;24.88;9.20;;;;;;;;;;6171976;23;20068;-52
2022/04/12 12:47:58;;;;;;;21.25;9.40;;;;;;;;;;6174159;23;20044;-50
2022/04/12 12:50:27;;;;;;;17.55;7.57;;;;;;;;;;6174270;23;20017;-52
2022/04/12 12:52:59;;;;;;;15.68;7.90;;;;;;;;;;6173877;23;20016;-50
2022/04/12 12:55:26;;;;;;;21.08;9.10;;;;;;;;;;6174074;23;20044;-51
2022/04/12 12:57:52;;;;;;;18.90;7.53;;;;;;;;;;6173367;23;20005;-54
2022/04/12 13:00:20;;;;;;;13.23;5.95;;;;;;;;;;6173170;23;20013;-53
2022/04/12 13:02:46;;;;;;;23.58;9.00;;;;;;;;;;6169605;23;20051;-49
2022/04/12 13:05:12;;;;;;;33.28;9.27;;;;;;;;;;6171145;23;20099;-51
2022/04/12 13:07:38;;;;;;;23.13;9.27;;;;;;;;;;6172188;23;20013;-53
2022/04/12 13:10:06;;;;;;;26.30;9.63;;;;;;;;;;6174279;23;20695;-52
2022/04/12 13:12:32;;;;;;;26.45;9.73;;;;;;;;;;6172774;23;20013;-52
2022/04/12 13:14:57;;;;;;;20.95;8.68;;;;;;;;;;6174300;23;20533;-50
2022/04/12 13:17:23;;;;;;;23.33;9.50;;;;;;;;;;6172869;23;20615;-52
2022/04/12 13:19:48;;;;;;;21.95;8.90;;;;;;;;;;6174803;23;20009;-49
2022/04/12 13:22:13;;;;;;;24.08;9.98;;;;;;;;;;6171075;23;20012;-51
2022/04/12 13:24:39;;;;;;;14.48;6.80;;;;;;;;;;6174058;23;20017;-49
2022/04/12 13:27:05;;;;;;;21.02;7.05;;;;;;;;;;6171794;23;20032;-52
2022/04/12 13:29:30;;;;;;;24.77;10.05;;;;;;;;;;6173830;23;20017;-52
2022/04/12 13:31:56;;;;;;;24.88;8.40;;;;;;;;;;6173521;23;20013;-52
2022/04/12 13:34:21;;;;;;;19.70;7.93;;;;;;;;;;6173500;23;20039;-51
2022/04/12 13:36:46;;;;;;;18.52;8.07;;;;;;;;;;6153473;23;20016;-52
2022/04/12 13:39:11;;;;;;;22.98;10.20;;;;;;;;;;6164549;23;20009;-53
2022/04/12 13:41:37;;;;;;;17.33;5.60;;;;;;;;;;6166147;23;20036;-50
2022/04/12 13:44:03;;;;;;;22.35;8.30;;;;;;;;;;6160630;23;20005;-51
2022/04/12 13:46:28;;;;;;;21.23;7.78;;;;;;;;;;6163408;23;20135;-52
2022/04/12 13:48:53;;;;;;;22.88;8.38;;;;;;;;;;6168189;23;20080;-50
2022/04/12 13:51:19;;;;;;;26.23;8.68;;;;;;;;;;6161477;23;20013;-49
2022/04/12 13:53:44;;;;;;;17.55;7.60;;;;;;;;;;6164616;23;20013;-53
2022/04/12 13:56:10;;;;;;;21.88;7.78;;;;;;;;;;6163361;23;20069;-53
2022/04/12 13:58:35;;;;;;;19.15;6.93;;;;;;;;;;6164083;23;20019;-52
2022/04/12 14:01:00;;;;;;;32.30;9.23;;;;;;;;;;6155964;23;20077;-52
2022/04/12 14:03:26;;;;;;;27.90;8.60;;;;;;;;;;6157119;23;20067;-49
2022/04/12 14:05:51;;;;;;;26.73;7.47;;;;;;;;;;6164072;23;20017;-48
2022/04/12 14:08:17;;;;;;;26.52;8.43;;;;;;;;;;6160740;23;20016;-49
2022/04/12 14:10:44;;;;;;;21.75;8.38;;;;;;;;;;6156549;23;20019;-51
2022/04/12 14:13:09;;;;;;;26.45;8.20;;;;;;;;;;6162438;23;20013;-56
2022/04/12 14:15:35;;;;;;;16.45;6.70;;;;;;;;;;6150645;23;20035;-50
2022/04/12 14:18:00;;;;;;;26.23;6.72;;;;;;;;;;6160849;23;20108;-52
2022/04/12 14:20:26;;;;;;;24.13;8.68;;;;;;;;;;6164265;23;20289;-55
2022/04/12 14:22:52;;;;;;;27.15;9.05;;;;;;;;;;6166110;23;20013;-52
2022/04/12 14:25:18;;;;;;;26.08;8.73;;;;;;;;;;6157340;23;20525;-53
2022/04/12 14:27:44;;;;;;;28.58;10.32;;;;;;;;;;6166747;23;20021;-55
2022/04/12 14:30:09;;;;;;;27.55;10.13;;;;;;;;;;6161605;23;20364;-54
2022/04/12 14:32:34;;;;;;;24.58;8.82;;;;;;;;;;6166056;23;20327;-52